EYPA/PLQ METAR and TAF weather

Enter ICAO airport designator
Station Type Date Time Source
EYPA METAR 2021/03/02 16:20 UTC NOAA

EYPA 021620Z 35005KT 310V020 CAVOK 03/01 Q1030 R01/0///95


Station Type Date Time Source
EYPA Decoded METAR 2021/03/02 16:20 UTC NOAA

Palanga Intl., Lithuania (EYPA) 55-55-12N 021-03E
Mar 02, 2021 - 11:20 AM EST / 2021.03.02 1620 UTC
Wind: from the N (350 degrees) at 6 MPH (5 KT) (direction variable):0
Visibility: greater than 7 mile(s):0
Temperature: 37 F (3 C)
Dew Point: 33 F (1 C)
Relative Humidity: 86%
Pressure (altimeter): 30.42 in. Hg (1030 hPa)
ob: EYPA 021620Z 35005KT 310V020 CAVOK 03/01 Q1030 R01/0///95
cycle: 16

Station Type Date Time Source
EYPA TAF 2021/03/02 12:03 UTC NOAA

TAF TAF EYPA 021101Z 0212/0312 32008KT 9000 NSC
TEMPO 0219/0222 5000 BR BKN010
BECMG 0222/0224 25006KT 1500 BR OVC005
TEMPO 0300/0307 0500 FG VV002
BECMG 0307/0309 6000 NSW BKN010

Example: see airport list